sensor_id;sensor_type;location;lat;lon;timestamp;P1;durP1;ratioP1;P2;durP2;ratioP2
55210;SDS011;41082;52.822;6.666;2023-06-22T00:01:58;18.52;;;16.40;;
55210;SDS011;41082;52.822;6.666;2023-06-22T00:04:24;21.92;;;18.67;;
55210;SDS011;41082;52.822;6.666;2023-06-22T00:06:50;20.17;;;18.10;;
55210;SDS011;41082;52.822;6.666;2023-06-22T00:09:15;18.60;;;16.63;;
55210;SDS011;41082;52.822;6.666;2023-06-22T00:11:41;20.45;;;18.33;;
55210;SDS011;41082;52.822;6.666;2023-06-22T00:14:07;24.02;;;17.67;;
55210;SDS011;41082;52.822;6.666;2023-06-22T00:16:32;23.60;;;20.73;;
55210;SDS011;41082;52.822;6.666;2023-06-22T00:18:58;25.92;;;20.63;;
55210;SDS011;41082;52.822;6.666;2023-06-22T00:21:28;23.33;;;20.67;;
55210;SDS011;41082;52.822;6.666;2023-06-22T00:23:53;26.02;;;20.30;;
55210;SDS011;41082;52.822;6.666;2023-06-22T00:26:19;25.70;;;23.10;;
55210;SDS011;41082;52.822;6.666;2023-06-22T00:28:46;23.55;;;21.00;;
55210;SDS011;41082;52.822;6.666;2023-06-22T00:31:11;23.13;;;20.65;;
55210;SDS011;41082;52.822;6.666;2023-06-22T00:33:37;24.30;;;21.67;;
55210;SDS011;41082;52.822;6.666;2023-06-22T00:36:03;24.70;;;21.70;;
55210;SDS011;41082;52.822;6.666;2023-06-22T00:38:29;23.20;;;21.00;;
55210;SDS011;41082;52.822;6.666;2023-06-22T00:40:54;24.13;;;21.65;;
55210;SDS011;41082;52.822;6.666;2023-06-22T00:43:20;21.10;;;18.40;;
55210;SDS011;41082;52.822;6.666;2023-06-22T00:45:46;17.65;;;15.85;;
55210;SDS011;41082;52.822;6.666;2023-06-22T00:48:12;17.10;;;15.27;;
55210;SDS011;41082;52.822;6.666;2023-06-22T00:50:39;17.73;;;15.82;;
55210;SDS011;41082;52.822;6.666;2023-06-22T00:53:06;16.67;;;14.90;;
55210;SDS011;41082;52.822;6.666;2023-06-22T00:55:51;17.83;;;15.98;;
55210;SDS011;41082;52.822;6.666;2023-06-22T00:58:17;17.58;;;16.05;;
55210;SDS011;41082;52.822;6.666;2023-06-22T01:00:46;16.08;;;14.48;;
55210;SDS011;41082;52.822;6.666;2023-06-22T01:03:12;18.58;;;16.60;;
55210;SDS011;41082;52.822;6.666;2023-06-22T01:05:38;19.92;;;17.83;;
55210;SDS011;41082;52.822;6.666;2023-06-22T01:16:19;20.35;;;18.35;;
55210;SDS011;41082;52.822;6.666;2023-06-22T01:18:50;21.80;;;19.50;;
55210;SDS011;41082;52.822;6.666;2023-06-22T01:21:20;22.45;;;20.08;;
55210;SDS011;41082;52.822;6.666;2023-06-22T01:24:11;21.10;;;18.35;;
55210;SDS011;41082;52.822;6.666;2023-06-22T01:29:32;19.73;;;17.67;;
55210;SDS011;41082;52.822;6.666;2023-06-22T01:31:59;20.35;;;18.48;;
55210;SDS011;41082;52.822;6.666;2023-06-22T01:34:27;19.27;;;17.42;;
55210;SDS011;41082;52.822;6.666;2023-06-22T01:36:54;22.35;;;20.15;;
55210;SDS011;41082;52.822;6.666;2023-06-22T01:39:20;29.20;;;25.35;;
55210;SDS011;41082;52.822;6.666;2023-06-22T01:41:47;27.85;;;24.85;;
55210;SDS011;41082;52.822;6.666;2023-06-22T01:44:13;27.25;;;24.55;;
55210;SDS011;41082;52.822;6.666;2023-06-22T01:46:39;25.83;;;23.15;;
55210;SDS011;41082;52.822;6.666;2023-06-22T01:49:05;24.48;;;21.98;;
55210;SDS011;41082;52.822;6.666;2023-06-22T01:51:31;25.65;;;22.90;;
55210;SDS011;41082;52.822;6.666;2023-06-22T01:53:57;24.77;;;22.23;;
55210;SDS011;41082;52.822;6.666;2023-06-22T01:56:23;24.75;;;22.13;;
55210;SDS011;41082;52.822;6.666;2023-06-22T01:59:11;23.55;;;21.05;;
55210;SDS011;41082;52.822;6.666;2023-06-22T02:01:47;21.83;;;19.20;;
55210;SDS011;41082;52.822;6.666;2023-06-22T02:04:22;23.92;;;21.40;;
55210;SDS011;41082;52.822;6.666;2023-06-22T02:06:54;20.40;;;18.17;;
55210;SDS011;41082;52.822;6.666;2023-06-22T02:09:22;19.30;;;17.40;;
55210;SDS011;41082;52.822;6.666;2023-06-22T02:11:51;18.73;;;16.95;;
55210;SDS011;41082;52.822;6.666;2023-06-22T02:14:20;19.65;;;17.85;;
55210;SDS011;41082;52.822;6.666;2023-06-22T02:16:47;21.75;;;19.63;;
55210;SDS011;41082;52.822;6.666;2023-06-22T02:19:13;21.63;;;19.42;;
55210;SDS011;41082;52.822;6.666;2023-06-22T02:21:43;21.23;;;19.23;;
55210;SDS011;41082;52.822;6.666;2023-06-22T02:24:09;20.75;;;18.73;;
55210;SDS011;41082;52.822;6.666;2023-06-22T02:26:35;21.02;;;19.00;;
55210;SDS011;41082;52.822;6.666;2023-06-22T02:29:03;24.73;;;22.15;;
55210;SDS011;41082;52.822;6.666;2023-06-22T02:31:28;25.23;;;22.65;;
55210;SDS011;41082;52.822;6.666;2023-06-22T02:33:55;23.33;;;21.02;;
55210;SDS011;41082;52.822;6.666;2023-06-22T02:36:23;15.38;;;13.88;;
55210;SDS011;41082;52.822;6.666;2023-06-22T02:38:48;11.73;;;10.63;;
55210;SDS011;41082;52.822;6.666;2023-06-22T02:41:15;10.80;;;9.90;;
55210;SDS011;41082;52.822;6.666;2023-06-22T02:43:43;10.57;;;9.57;;
55210;SDS011;41082;52.822;6.666;2023-06-22T02:46:13;12.63;;;11.63;;
55210;SDS011;41082;52.822;6.666;2023-06-22T02:48:39;11.65;;;10.63;;
55210;SDS011;41082;52.822;6.666;2023-06-22T02:51:05;11.70;;;10.70;;
55210;SDS011;41082;52.822;6.666;2023-06-22T02:53:32;11.65;;;10.45;;
55210;SDS011;41082;52.822;6.666;2023-06-22T02:55:57;12.60;;;11.40;;
55210;SDS011;41082;52.822;6.666;2023-06-22T02:58:23;14.00;;;12.70;;
55210;SDS011;41082;52.822;6.666;2023-06-22T03:00:49;11.98;;;10.77;;
55210;SDS011;41082;52.822;6.666;2023-06-22T03:03:18;12.82;;;11.68;;
55210;SDS011;41082;52.822;6.666;2023-06-22T03:05:44;13.15;;;11.95;;
55210;SDS011;41082;52.822;6.666;2023-06-22T03:08:09;13.60;;;12.40;;
55210;SDS011;41082;52.822;6.666;2023-06-22T03:10:35;11.68;;;10.48;;
55210;SDS011;41082;52.822;6.666;2023-06-22T03:13:01;9.25;;;8.38;;
55210;SDS011;41082;52.822;6.666;2023-06-22T03:15:26;11.63;;;10.63;;
55210;SDS011;41082;52.822;6.666;2023-06-22T03:17:54;13.00;;;11.85;;
55210;SDS011;41082;52.822;6.666;2023-06-22T03:20:19;12.10;;;11.00;;
55210;SDS011;41082;52.822;6.666;2023-06-22T03:22:45;13.95;;;12.65;;
55210;SDS011;41082;52.822;6.666;2023-06-22T03:25:11;10.23;;;9.32;;
55210;SDS011;41082;52.822;6.666;2023-06-22T03:27:40;11.90;;;10.90;;
55210;SDS011;41082;52.822;6.666;2023-06-22T03:30:07;10.95;;;10.05;;
55210;SDS011;41082;52.822;6.666;2023-06-22T03:32:33;9.85;;;9.15;;
55210;SDS011;41082;52.822;6.666;2023-06-22T03:34:59;9.68;;;8.88;;
55210;SDS011;41082;52.822;6.666;2023-06-22T03:37:25;9.65;;;8.88;;
55210;SDS011;41082;52.822;6.666;2023-06-22T03:39:51;9.68;;;8.88;;
55210;SDS011;41082;52.822;6.666;2023-06-22T03:42:17;9.30;;;8.52;;
55210;SDS011;41082;52.822;6.666;2023-06-22T03:44:43;8.48;;;7.78;;
55210;SDS011;41082;52.822;6.666;2023-06-22T03:47:09;5.28;;;4.80;;
55210;SDS011;41082;52.822;6.666;2023-06-22T03:49:34;4.32;;;3.92;;
55210;SDS011;41082;52.822;6.666;2023-06-22T03:52:01;8.10;;;7.50;;
55210;SDS011;41082;52.822;6.666;2023-06-22T03:54:27;15.90;;;14.35;;
55210;SDS011;41082;52.822;6.666;2023-06-22T03:56:54;19.95;;;18.10;;
55210;SDS011;41082;52.822;6.666;2023-06-22T03:59:19;21.77;;;19.67;;
55210;SDS011;41082;52.822;6.666;2023-06-22T04:01:45;21.25;;;19.20;;
55210;SDS011;41082;52.822;6.666;2023-06-22T04:04:11;19.58;;;17.83;;
55210;SDS011;41082;52.822;6.666;2023-06-22T04:06:37;16.88;;;15.40;;
55210;SDS011;41082;52.822;6.666;2023-06-22T04:09:03;17.95;;;16.35;;
55210;SDS011;41082;52.822;6.666;2023-06-22T04:11:30;19.50;;;17.77;;
55210;SDS011;41082;52.822;6.666;2023-06-22T04:13:56;20.35;;;18.25;;
55210;SDS011;41082;52.822;6.666;2023-06-22T04:16:21;25.17;;;22.67;;
55210;SDS011;41082;52.822;6.666;2023-06-22T04:18:47;30.20;;;27.10;;
55210;SDS011;41082;52.822;6.666;2023-06-22T04:21:13;32.22;;;26.40;;
55210;SDS011;41082;52.822;6.666;2023-06-22T04:23:39;28.50;;;25.55;;
55210;SDS011;41082;52.822;6.666;2023-06-22T04:26:04;30.40;;;24.90;;
55210;SDS011;41082;52.822;6.666;2023-06-22T04:28:30;33.30;;;29.67;;
55210;SDS011;41082;52.822;6.666;2023-06-22T04:31:00;30.33;;;27.00;;
55210;SDS011;41082;52.822;6.666;2023-06-22T04:33:28;30.80;;;27.50;;
55210;SDS011;41082;52.822;6.666;2023-06-22T04:35:54;29.85;;;26.67;;
55210;SDS011;41082;52.822;6.666;2023-06-22T04:38:22;32.00;;;28.48;;
55210;SDS011;41082;52.822;6.666;2023-06-22T04:40:48;36.17;;;32.30;;
55210;SDS011;41082;52.822;6.666;2023-06-22T04:43:14;35.65;;;31.23;;
55210;SDS011;41082;52.822;6.666;2023-06-22T04:45:40;36.83;;;30.83;;
55210;SDS011;41082;52.822;6.666;2023-06-22T04:48:05;33.17;;;29.67;;
55210;SDS011;41082;52.822;6.666;2023-06-22T04:50:31;37.45;;;32.55;;
55210;SDS011;41082;52.822;6.666;2023-06-22T04:52:56;37.13;;;32.60;;
55210;SDS011;41082;52.822;6.666;2023-06-22T04:55:23;40.15;;;34.25;;
55210;SDS011;41082;52.822;6.666;2023-06-22T04:57:50;35.13;;;31.33;;
55210;SDS011;41082;52.822;6.666;2023-06-22T05:02:44;38.78;;;34.60;;
55210;SDS011;41082;52.822;6.666;2023-06-22T05:05:11;39.30;;;35.05;;
55210;SDS011;41082;52.822;6.666;2023-06-22T05:07:44;43.87;;;36.17;;
55210;SDS011;41082;52.822;6.666;2023-06-22T05:10:13;41.67;;;36.45;;
55210;SDS011;41082;52.822;6.666;2023-06-22T05:12:39;43.10;;;37.88;;
55210;SDS011;41082;52.822;6.666;2023-06-22T05:15:06;38.42;;;34.28;;
55210;SDS011;41082;52.822;6.666;2023-06-22T05:17:33;41.35;;;36.92;;
55210;SDS011;41082;52.822;6.666;2023-06-22T05:19:59;45.90;;;39.03;;
55210;SDS011;41082;52.822;6.666;2023-06-22T05:22:25;45.33;;;39.63;;
55210;SDS011;41082;52.822;6.666;2023-06-22T05:24:50;42.15;;;36.13;;
55210;SDS011;41082;52.822;6.666;2023-06-22T05:27:16;46.78;;;39.20;;
55210;SDS011;41082;52.822;6.666;2023-06-22T05:29:42;46.50;;;41.40;;
55210;SDS011;41082;52.822;6.666;2023-06-22T05:32:07;50.70;;;42.05;;
55210;SDS011;41082;52.822;6.666;2023-06-22T05:34:33;46.53;;;39.70;;
55210;SDS011;41082;52.822;6.666;2023-06-22T05:36:59;44.45;;;38.45;;
55210;SDS011;41082;52.822;6.666;2023-06-22T05:39:24;44.97;;;38.78;;
55210;SDS011;41082;52.822;6.666;2023-06-22T05:41:51;46.25;;;38.75;;
55210;SDS011;41082;52.822;6.666;2023-06-22T05:44:17;43.22;;;38.30;;
55210;SDS011;41082;52.822;6.666;2023-06-22T05:46:43;43.03;;;37.78;;
55210;SDS011;41082;52.822;6.666;2023-06-22T05:49:09;44.60;;;37.97;;
55210;SDS011;41082;52.822;6.666;2023-06-22T05:51:36;40.65;;;36.13;;
55210;SDS011;41082;52.822;6.666;2023-06-22T05:54:02;40.55;;;34.72;;
55210;SDS011;41082;52.822;6.666;2023-06-22T05:56:27;40.72;;;34.38;;
55210;SDS011;41082;52.822;6.666;2023-06-22T05:58:53;40.05;;;35.28;;
55210;SDS011;41082;52.822;6.666;2023-06-22T06:01:19;36.42;;;32.60;;
55210;SDS011;41082;52.822;6.666;2023-06-22T06:03:45;35.20;;;31.60;;
55210;SDS011;41082;52.822;6.666;2023-06-22T06:06:10;35.50;;;30.45;;
55210;SDS011;41082;52.822;6.666;2023-06-22T06:08:37;35.17;;;30.23;;
55210;SDS011;41082;52.822;6.666;2023-06-22T06:11:03;34.17;;;30.63;;
55210;SDS011;41082;52.822;6.666;2023-06-22T06:13:29;35.65;;;30.52;;
55210;SDS011;41082;52.822;6.666;2023-06-22T06:15:56;32.13;;;28.60;;
55210;SDS011;41082;52.822;6.666;2023-06-22T06:18:22;29.50;;;26.30;;
55210;SDS011;41082;52.822;6.666;2023-06-22T06:20:48;30.55;;;27.27;;
55210;SDS011;41082;52.822;6.666;2023-06-22T06:23:13;30.25;;;26.38;;
55210;SDS011;41082;52.822;6.666;2023-06-22T06:25:39;26.55;;;23.73;;
55210;SDS011;41082;52.822;6.666;2023-06-22T06:28:05;29.45;;;23.77;;
55210;SDS011;41082;52.822;6.666;2023-06-22T06:30:30;25.13;;;22.55;;
55210;SDS011;41082;52.822;6.666;2023-06-22T06:32:56;24.63;;;21.98;;
55210;SDS011;41082;52.822;6.666;2023-06-22T06:35:22;24.10;;;21.55;;
55210;SDS011;41082;52.822;6.666;2023-06-22T06:37:49;24.50;;;21.00;;
55210;SDS011;41082;52.822;6.666;2023-06-22T06:40:16;23.23;;;20.77;;
55210;SDS011;41082;52.822;6.666;2023-06-22T06:42:44;22.95;;;20.25;;
55210;SDS011;41082;52.822;6.666;2023-06-22T06:45:11;22.80;;;20.40;;
55210;SDS011;41082;52.822;6.666;2023-06-22T06:47:38;22.38;;;20.05;;
55210;SDS011;41082;52.822;6.666;2023-06-22T06:50:04;19.10;;;16.92;;
55210;SDS011;41082;52.822;6.666;2023-06-22T06:52:31;18.58;;;16.67;;
55210;SDS011;41082;52.822;6.666;2023-06-22T06:54:56;17.48;;;15.65;;
55210;SDS011;41082;52.822;6.666;2023-06-22T06:57:22;17.20;;;15.30;;
55210;SDS011;41082;52.822;6.666;2023-06-22T06:59:48;16.52;;;14.80;;
55210;SDS011;41082;52.822;6.666;2023-06-22T07:02:14;19.40;;;15.93;;
55210;SDS011;41082;52.822;6.666;2023-06-22T07:04:40;18.17;;;16.20;;
55210;SDS011;41082;52.822;6.666;2023-06-22T07:07:06;17.00;;;15.23;;
55210;SDS011;41082;52.822;6.666;2023-06-22T07:09:32;19.20;;;13.20;;
55210;SDS011;41082;52.822;6.666;2023-06-22T07:11:57;14.98;;;13.45;;
55210;SDS011;41082;52.822;6.666;2023-06-22T07:14:23;14.15;;;11.90;;
55210;SDS011;41082;52.822;6.666;2023-06-22T07:16:49;14.93;;;12.55;;
55210;SDS011;41082;52.822;6.666;2023-06-22T07:19:14;13.82;;;11.60;;
55210;SDS011;41082;52.822;6.666;2023-06-22T07:21:40;12.57;;;9.55;;
55210;SDS011;41082;52.822;6.666;2023-06-22T07:24:06;10.40;;;9.32;;
55210;SDS011;41082;52.822;6.666;2023-06-22T07:26:32;10.05;;;7.63;;
55210;SDS011;41082;52.822;6.666;2023-06-22T07:28:58;8.57;;;6.82;;
55210;SDS011;41082;52.822;6.666;2023-06-22T07:31:24;8.63;;;6.93;;
55210;SDS011;41082;52.822;6.666;2023-06-22T07:33:50;8.77;;;6.38;;
55210;SDS011;41082;52.822;6.666;2023-06-22T07:36:16;7.78;;;7.05;;
55210;SDS011;41082;52.822;6.666;2023-06-22T07:38:42;9.40;;;6.93;;
55210;SDS011;41082;52.822;6.666;2023-06-22T07:41:08;8.05;;;6.10;;
55210;SDS011;41082;52.822;6.666;2023-06-22T07:43:33;7.82;;;6.45;;
55210;SDS011;41082;52.822;6.666;2023-06-22T07:46:02;10.05;;;6.85;;
55210;SDS011;41082;52.822;6.666;2023-06-22T07:48:28;9.20;;;7.28;;
55210;SDS011;41082;52.822;6.666;2023-06-22T07:50:54;7.95;;;6.53;;
55210;SDS011;41082;52.822;6.666;2023-06-22T07:53:20;7.60;;;6.15;;
55210;SDS011;41082;52.822;6.666;2023-06-22T07:55:48;8.55;;;5.90;;
55210;SDS011;41082;52.822;6.666;2023-06-22T07:58:13;10.70;;;5.25;;
55210;SDS011;41082;52.822;6.666;2023-06-22T08:00:40;7.75;;;6.05;;
55210;SDS011;41082;52.822;6.666;2023-06-22T08:03:06;6.50;;;5.85;;
55210;SDS011;41082;52.822;6.666;2023-06-22T08:05:32;5.68;;;5.10;;
55210;SDS011;41082;52.822;6.666;2023-06-22T08:07:58;9.18;;;5.45;;
55210;SDS011;41082;52.822;6.666;2023-06-22T08:10:24;8.90;;;6.18;;
55210;SDS011;41082;52.822;6.666;2023-06-22T08:12:49;7.43;;;5.80;;
55210;SDS011;41082;52.822;6.666;2023-06-22T08:15:16;7.78;;;5.40;;
55210;SDS011;41082;52.822;6.666;2023-06-22T08:17:43;6.90;;;5.57;;
55210;SDS011;41082;52.822;6.666;2023-06-22T08:20:10;6.68;;;5.93;;
55210;SDS011;41082;52.822;6.666;2023-06-22T08:22:36;7.25;;;6.10;;
55210;SDS011;41082;52.822;6.666;2023-06-22T08:25:02;6.95;;;5.95;;
55210;SDS011;41082;52.822;6.666;2023-06-22T08:27:29;8.65;;;7.10;;
55210;SDS011;41082;52.822;6.666;2023-06-22T08:29:57;7.32;;;6.07;;
55210;SDS011;41082;52.822;6.666;2023-06-22T08:32:24;10.02;;;5.95;;
55210;SDS011;41082;52.822;6.666;2023-06-22T08:34:53;7.10;;;6.15;;
55210;SDS011;41082;52.822;6.666;2023-06-22T08:37:19;7.35;;;6.10;;
55210;SDS011;41082;52.822;6.666;2023-06-22T08:39:45;7.90;;;6.07;;
55210;SDS011;41082;52.822;6.666;2023-06-22T08:42:11;8.00;;;6.07;;
55210;SDS011;41082;52.822;6.666;2023-06-22T08:44:37;8.13;;;5.78;;
55210;SDS011;41082;52.822;6.666;2023-06-22T08:47:03;9.73;;;5.30;;
55210;SDS011;41082;52.822;6.666;2023-06-22T08:49:29;7.65;;;5.82;;
55210;SDS011;41082;52.822;6.666;2023-06-22T08:51:54;6.10;;;5.20;;
55210;SDS011;41082;52.822;6.666;2023-06-22T08:54:21;7.35;;;5.30;;
55210;SDS011;41082;52.822;6.666;2023-06-22T08:56:47;7.15;;;4.88;;
55210;SDS011;41082;52.822;6.666;2023-06-22T08:59:13;7.75;;;4.78;;
55210;SDS011;41082;52.822;6.666;2023-06-22T09:01:38;7.00;;;5.10;;
55210;SDS011;41082;52.822;6.666;2023-06-22T09:04:04;9.48;;;5.43;;
55210;SDS011;41082;52.822;6.666;2023-06-22T09:06:31;7.32;;;5.70;;
55210;SDS011;41082;52.822;6.666;2023-06-22T09:08:57;6.93;;;5.00;;
55210;SDS011;41082;52.822;6.666;2023-06-22T09:11:24;10.05;;;5.93;;
55210;SDS011;41082;52.822;6.666;2023-06-22T09:13:50;5.97;;;4.25;;
55210;SDS011;41082;52.822;6.666;2023-06-22T09:16:18;7.95;;;4.80;;
55210;SDS011;41082;52.822;6.666;2023-06-22T09:18:46;8.27;;;5.38;;
55210;SDS011;41082;52.822;6.666;2023-06-22T09:21:12;7.07;;;5.03;;
55210;SDS011;41082;52.822;6.666;2023-06-22T09:23:37;6.75;;;5.00;;
55210;SDS011;41082;52.822;6.666;2023-06-22T09:26:03;7.10;;;4.95;;
55210;SDS011;41082;52.822;6.666;2023-06-22T09:28:29;6.55;;;5.05;;
55210;SDS011;41082;52.822;6.666;2023-06-22T09:30:54;7.47;;;4.85;;
55210;SDS011;41082;52.822;6.666;2023-06-22T09:33:23;6.78;;;4.75;;
55210;SDS011;41082;52.822;6.666;2023-06-22T09:35:49;6.95;;;4.40;;
55210;SDS011;41082;52.822;6.666;2023-06-22T09:38:16;4.88;;;4.32;;
55210;SDS011;41082;52.822;6.666;2023-06-22T09:40:42;6.28;;;4.45;;
55210;SDS011;41082;52.822;6.666;2023-06-22T09:43:07;5.03;;;3.78;;
55210;SDS011;41082;52.822;6.666;2023-06-22T09:45:33;8.23;;;4.90;;
55210;SDS011;41082;52.822;6.666;2023-06-22T09:47:59;7.30;;;5.60;;
55210;SDS011;41082;52.822;6.666;2023-06-22T09:50:25;6.68;;;4.90;;
55210;SDS011;41082;52.822;6.666;2023-06-22T09:52:50;7.03;;;5.85;;
55210;SDS011;41082;52.822;6.666;2023-06-22T09:55:20;5.97;;;4.78;;
55210;SDS011;41082;52.822;6.666;2023-06-22T09:57:46;10.00;;;5.45;;
55210;SDS011;41082;52.822;6.666;2023-06-22T10:00:12;8.60;;;6.38;;
55210;SDS011;41082;52.822;6.666;2023-06-22T10:02:39;6.35;;;5.07;;
55210;SDS011;41082;52.822;6.666;2023-06-22T10:05:06;7.20;;;5.65;;
55210;SDS011;41082;52.822;6.666;2023-06-22T10:07:32;5.40;;;4.43;;
55210;SDS011;41082;52.822;6.666;2023-06-22T10:09:58;7.78;;;5.32;;
55210;SDS011;41082;52.822;6.666;2023-06-22T10:12:25;10.32;;;6.15;;
55210;SDS011;41082;52.822;6.666;2023-06-22T10:14:52;5.80;;;5.18;;
55210;SDS011;41082;52.822;6.666;2023-06-22T10:17:18;7.03;;;5.80;;
55210;SDS011;41082;52.822;6.666;2023-06-22T10:19:43;7.65;;;5.43;;
55210;SDS011;41082;52.822;6.666;2023-06-22T10:22:09;6.93;;;6.10;;
55210;SDS011;41082;52.822;6.666;2023-06-22T10:24:34;6.40;;;5.35;;
55210;SDS011;41082;52.822;6.666;2023-06-22T10:27:00;11.35;;;5.45;;
55210;SDS011;41082;52.822;6.666;2023-06-22T10:29:25;8.55;;;6.82;;
55210;SDS011;41082;52.822;6.666;2023-06-22T10:31:51;5.35;;;4.38;;
55210;SDS011;41082;52.822;6.666;2023-06-22T10:34:17;4.88;;;4.38;;
55210;SDS011;41082;52.822;6.666;2023-06-22T10:36:42;6.72;;;5.50;;
55210;SDS011;41082;52.822;6.666;2023-06-22T10:39:08;5.82;;;5.18;;
55210;SDS011;41082;52.822;6.666;2023-06-22T10:41:33;6.80;;;5.03;;
55210;SDS011;41082;52.822;6.666;2023-06-22T10:44:00;8.32;;;5.88;;
55210;SDS011;41082;52.822;6.666;2023-06-22T10:46:25;8.40;;;6.18;;
55210;SDS011;41082;52.822;6.666;2023-06-22T10:48:52;7.82;;;6.10;;
55210;SDS011;41082;52.822;6.666;2023-06-22T10:51:20;7.38;;;6.07;;
55210;SDS011;41082;52.822;6.666;2023-06-22T10:53:45;6.32;;;5.05;;
55210;SDS011;41082;52.822;6.666;2023-06-22T10:56:11;8.43;;;5.03;;
55210;SDS011;41082;52.822;6.666;2023-06-22T10:58:36;7.97;;;5.32;;
55210;SDS011;41082;52.822;6.666;2023-06-22T11:01:02;6.97;;;5.90;;
55210;SDS011;41082;52.822;6.666;2023-06-22T11:03:28;6.43;;;5.13;;
55210;SDS011;41082;52.822;6.666;2023-06-22T11:05:54;7.70;;;7.00;;
55210;SDS011;41082;52.822;6.666;2023-06-22T11:08:19;6.03;;;4.97;;
55210;SDS011;41082;52.822;6.666;2023-06-22T11:10:45;6.18;;;5.57;;
55210;SDS011;41082;52.822;6.666;2023-06-22T11:13:10;8.68;;;5.88;;
55210;SDS011;41082;52.822;6.666;2023-06-22T11:15:36;4.60;;;4.13;;
55210;SDS011;41082;52.822;6.666;2023-06-22T11:18:02;7.55;;;5.30;;
55210;SDS011;41082;52.822;6.666;2023-06-22T11:20:30;5.70;;;5.07;;
55210;SDS011;41082;52.822;6.666;2023-06-22T11:22:55;5.20;;;4.32;;
55210;SDS011;41082;52.822;6.666;2023-06-22T11:25:21;6.25;;;4.00;;
55210;SDS011;41082;52.822;6.666;2023-06-22T11:27:47;6.78;;;4.43;;
55210;SDS011;41082;52.822;6.666;2023-06-22T11:30:12;7.93;;;6.30;;
55210;SDS011;41082;52.822;6.666;2023-06-22T11:32:38;9.57;;;5.70;;
55210;SDS011;41082;52.822;6.666;2023-06-22T11:35:04;5.97;;;5.38;;
55210;SDS011;41082;52.822;6.666;2023-06-22T11:37:29;7.85;;;4.93;;
55210;SDS011;41082;52.822;6.666;2023-06-22T11:39:55;7.45;;;5.90;;
55210;SDS011;41082;52.822;6.666;2023-06-22T11:42:20;7.78;;;5.82;;
55210;SDS011;41082;52.822;6.666;2023-06-22T11:44:48;7.63;;;5.30;;
55210;SDS011;41082;52.822;6.666;2023-06-22T11:47:14;8.45;;;7.00;;
55210;SDS011;41082;52.822;6.666;2023-06-22T11:49:40;6.90;;;5.55;;
55210;SDS011;41082;52.822;6.666;2023-06-22T11:52:06;6.78;;;5.90;;
55210;SDS011;41082;52.822;6.666;2023-06-22T11:54:31;7.13;;;5.40;;
55210;SDS011;41082;52.822;6.666;2023-06-22T11:56:57;8.10;;;6.00;;
55210;SDS011;41082;52.822;6.666;2023-06-22T11:59:23;6.55;;;5.18;;
55210;SDS011;41082;52.822;6.666;2023-06-22T12:01:48;6.80;;;5.13;;
55210;SDS011;41082;52.822;6.666;2023-06-22T12:04:16;7.47;;;4.82;;
55210;SDS011;41082;52.822;6.666;2023-06-22T12:06:42;6.90;;;4.72;;
55210;SDS011;41082;52.822;6.666;2023-06-22T12:09:08;8.35;;;5.45;;
55210;SDS011;41082;52.822;6.666;2023-06-22T12:11:35;5.78;;;4.95;;
55210;SDS011;41082;52.822;6.666;2023-06-22T12:14:00;8.40;;;5.40;;
55210;SDS011;41082;52.822;6.666;2023-06-22T12:16:27;6.53;;;5.72;;
55210;SDS011;41082;52.822;6.666;2023-06-22T12:18:53;6.18;;;4.88;;
55210;SDS011;41082;52.822;6.666;2023-06-22T12:21:19;7.65;;;6.15;;
55210;SDS011;41082;52.822;6.666;2023-06-22T12:23:44;9.43;;;6.03;;
55210;SDS011;41082;52.822;6.666;2023-06-22T12:26:10;7.97;;;6.43;;
55210;SDS011;41082;52.822;6.666;2023-06-22T12:28:35;6.93;;;5.72;;
55210;SDS011;41082;52.822;6.666;2023-06-22T12:31:01;6.63;;;4.95;;
55210;SDS011;41082;52.822;6.666;2023-06-22T12:33:27;7.30;;;6.40;;
55210;SDS011;41082;52.822;6.666;2023-06-22T12:35:52;6.90;;;5.38;;
55210;SDS011;41082;52.822;6.666;2023-06-22T12:38:18;8.52;;;6.57;;
55210;SDS011;41082;52.822;6.666;2023-06-22T12:40:43;9.32;;;7.13;;
55210;SDS011;41082;52.822;6.666;2023-06-22T12:43:09;8.77;;;6.35;;
55210;SDS011;41082;52.822;6.666;2023-06-22T12:45:35;7.95;;;6.15;;
55210;SDS011;41082;52.822;6.666;2023-06-22T12:48:00;8.82;;;6.82;;
55210;SDS011;41082;52.822;6.666;2023-06-22T12:50:26;9.73;;;6.40;;
55210;SDS011;41082;52.822;6.666;2023-06-22T12:52:52;6.70;;;6.00;;
55210;SDS011;41082;52.822;6.666;2023-06-22T12:55:17;8.10;;;7.20;;
55210;SDS011;41082;52.822;6.666;2023-06-22T12:57:43;8.63;;;6.80;;
55210;SDS011;41082;52.822;6.666;2023-06-22T13:00:09;8.35;;;6.72;;
55210;SDS011;41082;52.822;6.666;2023-06-22T13:02:35;7.38;;;6.57;;
55210;SDS011;41082;52.822;6.666;2023-06-22T13:05:01;7.60;;;5.78;;
55210;SDS011;41082;52.822;6.666;2023-06-22T13:07:27;6.68;;;5.75;;
55210;SDS011;41082;52.822;6.666;2023-06-22T13:09:53;10.30;;;6.68;;
55210;SDS011;41082;52.822;6.666;2023-06-22T13:12:19;10.02;;;7.53;;
55210;SDS011;41082;52.822;6.666;2023-06-22T13:14:45;9.65;;;6.80;;
55210;SDS011;41082;52.822;6.666;2023-06-22T13:17:12;13.80;;;7.03;;
55210;SDS011;41082;52.822;6.666;2023-06-22T13:19:39;7.28;;;5.93;;
55210;SDS011;41082;52.822;6.666;2023-06-22T13:22:04;8.13;;;6.93;;
55210;SDS011;41082;52.822;6.666;2023-06-22T13:24:30;7.82;;;6.68;;
55210;SDS011;41082;52.822;6.666;2023-06-22T13:26:56;9.30;;;6.60;;
55210;SDS011;41082;52.822;6.666;2023-06-22T13:29:21;8.30;;;7.18;;
55210;SDS011;41082;52.822;6.666;2023-06-22T13:31:47;8.45;;;5.85;;
55210;SDS011;41082;52.822;6.666;2023-06-22T13:34:12;8.80;;;5.88;;
55210;SDS011;41082;52.822;6.666;2023-06-22T13:36:38;8.98;;;5.45;;
55210;SDS011;41082;52.822;6.666;2023-06-22T13:39:03;6.28;;;5.18;;
55210;SDS011;41082;52.822;6.666;2023-06-22T13:41:29;5.85;;;4.78;;
55210;SDS011;41082;52.822;6.666;2023-06-22T13:43:55;5.90;;;4.88;;
55210;SDS011;41082;52.822;6.666;2023-06-22T13:46:20;9.07;;;4.57;;
55210;SDS011;41082;52.822;6.666;2023-06-22T13:48:46;8.40;;;5.38;;
55210;SDS011;41082;52.822;6.666;2023-06-22T13:51:11;5.63;;;4.72;;
55210;SDS011;41082;52.822;6.666;2023-06-22T13:53:37;11.07;;;4.82;;
55210;SDS011;41082;52.822;6.666;2023-06-22T13:56:03;9.80;;;5.20;;
55210;SDS011;41082;52.822;6.666;2023-06-22T13:58:28;7.50;;;5.05;;
55210;SDS011;41082;52.822;6.666;2023-06-22T14:00:54;6.57;;;5.70;;
55210;SDS011;41082;52.822;6.666;2023-06-22T14:03:19;9.90;;;5.30;;
55210;SDS011;41082;52.822;6.666;2023-06-22T14:05:45;7.18;;;5.18;;
55210;SDS011;41082;52.822;6.666;2023-06-22T14:08:11;8.43;;;5.10;;
55210;SDS011;41082;52.822;6.666;2023-06-22T14:10:37;9.60;;;5.75;;
55210;SDS011;41082;52.822;6.666;2023-06-22T14:13:03;9.32;;;5.57;;
55210;SDS011;41082;52.822;6.666;2023-06-22T14:15:31;10.63;;;5.90;;
55210;SDS011;41082;52.822;6.666;2023-06-22T14:17:57;10.98;;;5.72;;
55210;SDS011;41082;52.822;6.666;2023-06-22T14:20:22;11.70;;;6.00;;
55210;SDS011;41082;52.822;6.666;2023-06-22T14:22:48;12.30;;;5.63;;
55210;SDS011;41082;52.822;6.666;2023-06-22T14:25:14;8.57;;;5.70;;
55210;SDS011;41082;52.822;6.666;2023-06-22T14:27:39;8.93;;;5.88;;
55210;SDS011;41082;52.822;6.666;2023-06-22T14:30:05;10.52;;;5.53;;
55210;SDS011;41082;52.822;6.666;2023-06-22T14:32:31;8.23;;;5.28;;
55210;SDS011;41082;52.822;6.666;2023-06-22T14:34:56;6.68;;;5.80;;
55210;SDS011;41082;52.822;6.666;2023-06-22T14:37:22;7.93;;;5.45;;
55210;SDS011;41082;52.822;6.666;2023-06-22T14:39:47;8.55;;;5.72;;
55210;SDS011;41082;52.822;6.666;2023-06-22T14:42:13;10.20;;;5.57;;
55210;SDS011;41082;52.822;6.666;2023-06-22T14:44:39;11.93;;;6.65;;